createdAt,value
2022-12-01T00:00:00.528Z,0
2022-12-01T00:01:16.725Z,0
2022-12-01T00:02:32.907Z,0
2022-12-01T00:03:49.096Z,0
2022-12-01T00:05:05.280Z,0
2022-12-01T00:06:21.466Z,0
2022-12-01T00:07:37.655Z,0
2022-12-01T00:08:53.842Z,0
2022-12-01T00:10:10.041Z,0
2022-12-01T00:11:26.225Z,0
2022-12-01T00:12:42.309Z,0
2022-12-01T00:13:58.599Z,0
2022-12-01T00:15:13.807Z,0
2022-12-01T00:16:29.877Z,0
2022-12-01T00:17:46.186Z,0
2022-12-01T00:19:02.246Z,0
2022-12-01T00:20:18.433Z,0
2022-12-01T00:21:34.619Z,0
2022-12-01T00:22:50.819Z,0
2022-12-01T00:24:06.019Z,0
2022-12-01T00:25:21.349Z,0
2022-12-01T00:26:36.440Z,0
2022-12-01T00:27:51.771Z,0
2022-12-01T00:29:07.942Z,0
2022-12-01T00:30:24.138Z,0
2022-12-01T00:31:40.206Z,0
2022-12-01T00:32:56.502Z,0
2022-12-01T00:34:12.699Z,0
2022-12-01T00:35:28.886Z,0
2022-12-01T00:36:45.073Z,0
2022-12-01T00:38:01.270Z,0
2022-12-01T00:39:17.000Z,0
2022-12-01T00:40:33.641Z,0
2022-12-01T00:41:49.716Z,0
2022-12-01T00:43:06.001Z,0
2022-12-01T00:44:21.105Z,0
2022-12-01T00:45:37.285Z,0
2022-12-01T00:46:53.593Z,0
2022-12-01T00:48:09.775Z,0
2022-12-01T00:49:25.961Z,0
2022-12-01T00:50:42.028Z,0
2022-12-01T00:51:58.343Z,0
2022-12-01T00:53:13.544Z,0
2022-12-01T00:54:28.757Z,0
2022-12-01T00:55:45.091Z,0
2022-12-01T00:57:00.301Z,0
2022-12-01T00:58:16.366Z,0
2022-12-01T00:59:32.553Z,0
2022-12-01T01:00:48.849Z,0
2022-12-01T01:02:04.932Z,0
2022-12-01T01:03:21.240Z,0
2022-12-01T01:04:37.427Z,0
2022-12-01T01:05:53.603Z,0
2022-12-01T01:07:09.680Z,0
2022-12-01T01:08:25.981Z,0
2022-12-01T01:09:42.053Z,0
2022-12-01T01:10:58.349Z,0
2022-12-01T01:12:14.538Z,0
2022-12-01T01:13:29.739Z,0
2022-12-01T01:14:45.931Z,0
2022-12-01T01:16:01.993Z,0
2022-12-01T01:17:18.185Z,0
2022-12-01T01:18:34.499Z,0
2022-12-01T01:19:50.690Z,0
2022-12-01T01:21:06.865Z,0
2022-12-01T01:22:22.093Z,0
2022-12-01T01:23:37.282Z,0
2022-12-01T01:24:52.370Z,0
2022-12-01T01:26:07.711Z,0
2022-12-01T01:27:23.897Z,0
2022-12-01T01:28:40.090Z,0
2022-12-01T01:29:56.276Z,0
2022-12-01T01:31:11.474Z,0
2022-12-01T01:32:27.660Z,0
2022-12-01T01:33:43.847Z,0
2022-12-01T01:35:00.047Z,0
2022-12-01T01:36:16.237Z,0
2022-12-01T01:37:32.422Z,0
2022-12-01T01:38:48.598Z,0
2022-12-01T01:40:04.665Z,0
2022-12-01T01:41:20.981Z,0
2022-12-01T01:42:37.162Z,0
2022-12-01T01:43:53.349Z,0
2022-12-01T01:45:09.534Z,0
2022-12-01T01:46:25.723Z,0
2022-12-01T01:47:40.932Z,0
2022-12-01T01:48:57.120Z,0
2022-12-01T01:50:13.309Z,0
2022-12-01T01:51:28.527Z,0
2022-12-01T01:52:43.726Z,0
2022-12-01T01:53:58.811Z,0
2022-12-01T01:55:14.147Z,0
2022-12-01T01:56:30.324Z,0
2022-12-01T01:57:46.525Z,0
2022-12-01T01:59:02.715Z,0
2022-12-01T02:00:18.750Z,0
2022-12-01T02:01:35.071Z,0
2022-12-01T02:02:51.129Z,0
2022-12-01T02:04:07.463Z,0
2022-12-01T02:05:23.634Z,0
2022-12-01T02:06:39.694Z,0
2022-12-01T02:07:55.893Z,0
2022-12-01T02:09:12.210Z,0
2022-12-01T02:10:28.258Z,0
2022-12-01T02:11:43.593Z,0
2022-12-01T02:12:59.783Z,0
2022-12-01T02:14:15.972Z,0
2022-12-01T02:15:32.167Z,0
2022-12-01T02:16:48.337Z,0
2022-12-01T02:18:04.391Z,0
2022-12-01T02:19:20.591Z,0
2022-12-01T02:20:35.924Z,0
2022-12-01T02:21:51.134Z,0
2022-12-01T02:23:07.317Z,0
2022-12-01T02:24:23.507Z,0
2022-12-01T02:25:39.557Z,0
2022-12-01T02:26:55.757Z,0
2022-12-01T02:28:12.067Z,0
2022-12-01T02:29:28.262Z,0
2022-12-01T02:30:44.448Z,0
2022-12-01T02:32:00.629Z,0
2022-12-01T02:33:16.692Z,0
2022-12-01T02:34:33.014Z,0
2022-12-01T02:35:49.199Z,0
2022-12-01T02:37:05.389Z,0
2022-12-01T02:38:20.447Z,0
2022-12-01T02:39:36.779Z,0
2022-12-01T02:40:52.817Z,0
2022-12-01T02:42:09.162Z,0
2022-12-01T02:43:25.349Z,0
2022-12-01T02:44:41.530Z,0
2022-12-01T02:45:57.568Z,0
2022-12-01T02:47:12.933Z,0
2022-12-01T02:48:28.128Z,0
2022-12-01T02:49:43.203Z,0
2022-12-01T02:50:58.399Z,0
2022-12-01T02:52:13.770Z,0
2022-12-01T02:53:28.814Z,0
2022-12-01T02:54:45.145Z,0
2022-12-01T02:56:01.337Z,0
2022-12-01T02:57:17.392Z,0
2022-12-01T02:58:33.712Z,0
2022-12-01T02:59:49.914Z,0
2022-12-01T03:01:06.101Z,0
2022-12-01T03:02:22.281Z,0
2022-12-01T03:03:38.321Z,0
2022-12-01T03:04:54.499Z,0
2022-12-01T03:06:10.845Z,0
2022-12-01T03:07:27.026Z,0
2022-12-01T03:08:43.222Z,0
2022-12-01T03:09:58.276Z,0
2022-12-01T03:11:14.469Z,0
2022-12-01T03:12:30.793Z,0
2022-12-01T03:13:46.825Z,0
2022-12-01T03:15:03.164Z,0
2022-12-01T03:16:19.212Z,0
2022-12-01T03:17:35.543Z,0
2022-12-01T03:18:50.753Z,0
2022-12-01T03:20:05.969Z,0
2022-12-01T03:21:21.179Z,0
2022-12-01T03:22:36.369Z,0
2022-12-01T03:23:52.414Z,0
2022-12-01T03:25:08.757Z,0
2022-12-01T03:26:24.931Z,0
2022-12-01T03:27:41.126Z,0
2022-12-01T03:28:57.311Z,0
2022-12-01T03:30:13.497Z,0
2022-12-01T03:31:29.688Z,0
2022-12-01T03:32:45.885Z,0
2022-12-01T03:34:02.073Z,0
2022-12-01T03:35:18.101Z,0
2022-12-01T03:36:34.436Z,0
2022-12-01T03:37:50.628Z,0
2022-12-01T03:39:05.824Z,0
2022-12-01T03:40:22.014Z,0
2022-12-01T03:41:38.208Z,0
2022-12-01T03:42:54.240Z,0
2022-12-01T03:44:10.582Z,0
2022-12-01T03:45:26.769Z,0
2022-12-01T03:46:42.955Z,0
2022-12-01T03:47:58.011Z,0
2022-12-01T03:49:13.213Z,0
2022-12-01T03:50:29.571Z,0
2022-12-01T03:51:45.759Z,0
2022-12-01T03:53:01.936Z,0
2022-12-01T03:54:18.119Z,0
2022-12-01T03:55:34.309Z,0
2022-12-01T03:56:50.503Z,0
2022-12-01T03:58:06.684Z,0
2022-12-01T03:59:22.870Z,0
2022-12-01T04:00:39.060Z,0
2022-12-01T04:01:55.092Z,0
2022-12-01T04:03:11.444Z,0
2022-12-01T04:04:27.464Z,0
2022-12-01T04:05:42.832Z,0
2022-12-01T04:06:59.011Z,0
2022-12-01T04:08:15.202Z,0
2022-12-01T04:09:31.398Z,0
2022-12-01T04:10:47.577Z,0
2022-12-01T04:12:03.766Z,0
2022-12-01T04:13:19.959Z,0
2022-12-01T04:14:35.164Z,0
2022-12-01T04:15:50.367Z,0
2022-12-01T04:17:06.559Z,0
2022-12-01T04:18:22.738Z,0
2022-12-01T04:19:38.775Z,0
2022-12-01T04:20:54.948Z,0
2022-12-01T04:22:11.299Z,0
2022-12-01T04:23:27.483Z,0
2022-12-01T04:24:43.673Z,0
2022-12-01T04:25:59.860Z,0
2022-12-01T04:27:15.883Z,0
2022-12-01T04:28:32.250Z,0
2022-12-01T04:29:48.430Z,0
2022-12-01T04:31:04.623Z,0
2022-12-01T04:32:19.830Z,0
2022-12-01T04:33:36.002Z,0
2022-12-01T04:34:52.038Z,0
2022-12-01T04:36:08.388Z,0
2022-12-01T04:37:24.568Z,0
2022-12-01T04:38:40.768Z,0
2022-12-01T04:39:56.954Z,0
2022-12-01T04:41:12.167Z,0
2022-12-01T04:42:27.197Z,0
2022-12-01T04:43:43.698Z,0
2022-12-01T04:44:58.894Z,0
2022-12-01T04:46:14.118Z,0
2022-12-01T04:47:29.324Z,0
2022-12-01T04:48:45.497Z,0
2022-12-01T04:50:01.518Z,0
2022-12-01T04:51:17.715Z,0
2022-12-01T04:52:34.079Z,0
2022-12-01T04:53:50.258Z,0
2022-12-01T04:55:06.454Z,0
2022-12-01T04:56:22.630Z,0
2022-12-01T04:57:38.822Z,0
2022-12-01T04:58:55.007Z,0
2022-12-01T05:00:11.187Z,0
2022-12-01T05:01:27.390Z,0
2022-12-01T05:02:43.580Z,0
2022-12-01T05:03:58.783Z,0
2022-12-01T05:05:14.781Z,0
2022-12-01T05:06:31.144Z,0
2022-12-01T05:07:47.326Z,0
2022-12-01T05:09:03.519Z,0
2022-12-01T05:10:19.704Z,0
2022-12-01T05:11:35.727Z,0
2022-12-01T05:12:50.946Z,0
2022-12-01T05:14:06.307Z,0
2022-12-01T05:15:21.526Z,0
2022-12-01T05:16:36.733Z,0
2022-12-01T05:17:52.750Z,0
2022-12-01T05:19:09.108Z,0
2022-12-01T05:20:25.298Z,0
2022-12-01T05:21:41.482Z,0
2022-12-01T05:22:57.665Z,0
2022-12-01T05:24:13.851Z,0
2022-12-01T05:25:30.046Z,0
2022-12-01T05:26:46.236Z,0
2022-12-01T05:28:02.236Z,0
2022-12-01T05:29:18.422Z,0
2022-12-01T05:30:34.791Z,0
2022-12-01T05:31:50.988Z,0
2022-12-01T05:33:06.178Z,0
2022-12-01T05:34:22.373Z,0
2022-12-01T05:35:38.392Z,0
2022-12-01T05:36:54.746Z,0
2022-12-01T05:38:10.944Z,0
2022-12-01T05:39:27.117Z,0
2022-12-01T05:40:43.000Z,0
2022-12-01T05:41:58.337Z,0
2022-12-01T05:43:13.556Z,0
2022-12-01T05:44:28.937Z,0
2022-12-01T05:45:44.141Z,0
2022-12-01T05:47:00.346Z,0
2022-12-01T05:48:16.531Z,0
2022-12-01T05:49:32.722Z,0
2022-12-01T05:50:48.714Z,0
2022-12-01T05:52:04.914Z,0
2022-12-01T05:53:21.280Z,0
2022-12-01T05:55:53.655Z,0
2022-12-01T05:57:09.845Z,0
2022-12-01T05:58:25.843Z,0
2022-12-01T05:59:42.221Z,0
2022-12-01T06:00:58.410Z,0
2022-12-01T06:02:13.612Z,0
2022-12-01T06:03:29.799Z,0
2022-12-01T06:04:45.974Z,0
2022-12-01T06:06:01.990Z,0
2022-12-01T06:07:18.176Z,0
2022-12-01T06:08:34.534Z,0
2022-12-01T06:09:50.734Z,0
2022-12-01T06:11:06.740Z,0
2022-12-01T06:12:22.140Z,0
2022-12-01T06:13:37.333Z,0
2022-12-01T06:14:53.523Z,0
2022-12-01T06:16:09.716Z,0
2022-12-01T06:17:25.709Z,0
2022-12-01T06:18:42.088Z,0
2022-12-01T06:19:58.076Z,0
2022-12-01T06:21:14.272Z,0
2022-12-01T06:22:30.641Z,0
2022-12-01T06:23:46.650Z,0
2022-12-01T06:25:03.021Z,0
2022-12-01T06:26:19.209Z,0
2022-12-01T06:27:35.396Z,0
2022-12-01T06:28:51.584Z,0
2022-12-01T06:30:06.796Z,0
2022-12-01T06:31:22.973Z,0
2022-12-01T06:32:38.968Z,0
2022-12-01T06:33:55.162Z,0
2022-12-01T06:35:11.538Z,0
2022-12-01T06:36:27.539Z,4
2022-12-01T06:37:43.711Z,4
2022-12-01T06:38:59.116Z,4
2022-12-01T06:40:14.323Z,4
2022-12-01T06:41:29.359Z,4
2022-12-01T06:42:44.747Z,8
2022-12-01T06:44:00.741Z,4
2022-12-01T06:45:17.130Z,4
2022-12-01T06:46:33.311Z,8
2022-12-01T06:47:49.306Z,8
2022-12-01T06:49:05.682Z,12
2022-12-01T06:50:21.863Z,8
2022-12-01T06:51:37.863Z,12
2022-12-01T06:52:54.048Z,12
2022-12-01T06:54:10.444Z,16
2022-12-01T06:55:26.627Z,16
2022-12-01T06:56:42.607Z,16
2022-12-01T06:57:58.792Z,20
2022-12-01T06:59:14.003Z,20
2022-12-01T07:00:30.389Z,24
2022-12-01T07:01:46.382Z,28
2022-12-01T07:03:02.752Z,32
2022-12-01T07:04:18.949Z,36
2022-12-01T07:05:35.128Z,36
2022-12-01T07:06:51.119Z,44
2022-12-01T07:08:06.336Z,44
2022-12-01T07:09:21.556Z,44
2022-12-01T07:10:36.767Z,48
2022-12-01T07:11:52.158Z,48
2022-12-01T07:13:07.370Z,60
2022-12-01T07:14:22.385Z,64
2022-12-01T07:15:38.772Z,76
2022-12-01T07:16:54.953Z,80
2022-12-01T07:18:11.136Z,88
2022-12-01T07:19:27.321Z,100
2022-12-01T07:20:43.509Z,112
2022-12-01T07:21:59.498Z,120
2022-12-01T07:23:15.685Z,124
2022-12-01T07:24:32.083Z,124
2022-12-01T07:25:48.259Z,128
2022-12-01T07:27:04.241Z,136
2022-12-01T07:28:20.631Z,140
2022-12-01T07:29:36.621Z,156
2022-12-01T07:30:52.035Z,164
2022-12-01T07:32:08.012Z,168
2022-12-01T07:33:24.397Z,160
2022-12-01T07:34:40.396Z,156
2022-12-01T07:35:56.581Z,156
2022-12-01T07:37:12.970Z,160
2022-12-01T07:38:29.160Z,168
2022-12-01T07:39:44.358Z,172
2022-12-01T07:40:59.578Z,168
2022-12-01T07:42:14.783Z,176
2022-12-01T07:43:29.793Z,176
2022-12-01T07:44:45.970Z,172
2022-12-01T07:46:02.358Z,168
2022-12-01T07:47:18.544Z,176
2022-12-01T07:48:34.528Z,188
2022-12-01T07:49:50.730Z,192
2022-12-01T07:51:07.112Z,200
2022-12-01T07:52:23.094Z,212
2022-12-01T07:53:39.499Z,228
2022-12-01T07:54:55.680Z,220
2022-12-01T07:56:11.865Z,224
2022-12-01T07:57:28.051Z,216
2022-12-01T07:58:44.252Z,216
2022-12-01T07:59:59.454Z,240
2022-12-01T08:01:15.426Z,232
2022-12-01T08:02:31.826Z,240
2022-12-01T08:03:48.017Z,232
2022-12-01T08:05:04.211Z,236
2022-12-01T08:06:20.396Z,232
2022-12-01T08:07:36.583Z,248
2022-12-01T08:08:51.595Z,248
2022-12-01T08:10:06.792Z,244
2022-12-01T08:11:23.187Z,248
2022-12-01T08:12:38.203Z,248
2022-12-01T08:13:53.400Z,256
2022-12-01T08:15:09.810Z,256
2022-12-01T08:16:25.992Z,256
2022-12-01T08:17:42.187Z,272
2022-12-01T08:18:58.373Z,276
2022-12-01T08:20:14.560Z,284
2022-12-01T08:21:30.544Z,288
2022-12-01T08:22:46.938Z,292
2022-12-01T08:24:03.126Z,304
2022-12-01T08:25:19.106Z,312
2022-12-01T08:26:35.283Z,308
2022-12-01T08:27:51.700Z,320
2022-12-01T08:29:07.664Z,320
2022-12-01T08:30:22.868Z,324
2022-12-01T08:31:39.269Z,332
2022-12-01T08:32:55.462Z,336
2022-12-01T08:34:11.649Z,324
2022-12-01T08:35:27.847Z,332
2022-12-01T08:36:44.044Z,348
2022-12-01T08:38:00.012Z,364
2022-12-01T08:39:15.439Z,380
2022-12-01T08:40:30.648Z,400
2022-12-01T08:41:45.860Z,420
2022-12-01T08:43:00.841Z,452
2022-12-01T08:44:17.248Z,444
2022-12-01T08:45:33.445Z,456
2022-12-01T08:46:49.636Z,524
2022-12-01T08:48:05.819Z,576
2022-12-01T08:49:22.001Z,552
2022-12-01T08:50:37.978Z,512
2022-12-01T08:51:54.171Z,464
2022-12-01T08:53:10.579Z,488
2022-12-01T08:54:26.773Z,496
2022-12-01T08:55:42.953Z,484
2022-12-01T08:56:59.148Z,504
2022-12-01T08:58:15.336Z,512
2022-12-01T08:59:30.528Z,508
2022-12-01T09:00:46.518Z,480
2022-12-01T09:02:02.917Z,492
2022-12-01T09:03:19.106Z,472
2022-12-01T09:04:35.075Z,480
2022-12-01T09:05:51.253Z,468
2022-12-01T09:07:07.667Z,472
2022-12-01T09:08:22.672Z,464
2022-12-01T09:09:38.101Z,452
2022-12-01T09:10:53.304Z,460
2022-12-01T09:12:08.507Z,452
2022-12-01T09:13:24.711Z,444
2022-12-01T09:14:40.902Z,464
2022-12-01T09:15:57.073Z,484
2022-12-01T09:17:13.042Z,484
2022-12-01T09:18:29.451Z,492
2022-12-01T09:19:45.658Z,496
2022-12-01T09:21:01.843Z,476
2022-12-01T09:22:18.021Z,484
2022-12-01T09:23:33.980Z,496
2022-12-01T09:24:50.410Z,500
2022-12-01T09:26:06.585Z,500
2022-12-01T09:27:22.784Z,500
2022-12-01T09:28:37.991Z,504
2022-12-01T09:29:54.172Z,536
2022-12-01T09:31:10.132Z,576
2022-12-01T09:32:26.552Z,624
2022-12-01T09:33:42.745Z,656
2022-12-01T09:34:58.710Z,688
2022-12-01T09:36:14.888Z,704
2022-12-01T09:37:30.108Z,708
2022-12-01T09:38:45.325Z,716
2022-12-01T09:40:01.733Z,700
2022-12-01T09:41:17.915Z,688
2022-12-01T09:42:34.114Z,680
2022-12-01T09:43:50.297Z,672
2022-12-01T09:45:06.253Z,692
2022-12-01T09:46:22.460Z,684
2022-12-01T09:47:38.640Z,660
2022-12-01T09:48:55.064Z,656
2022-12-01T09:50:11.026Z,660
2022-12-01T09:51:27.211Z,652
2022-12-01T09:52:43.617Z,652
2022-12-01T09:53:59.583Z,668
2022-12-01T09:56:30.979Z,676
2022-12-01T09:57:47.392Z,684
2022-12-01T09:59:03.597Z,676
2022-12-01T10:00:18.790Z,668
2022-12-01T10:01:34.746Z,660
2022-12-01T10:02:51.184Z,664
2022-12-01T10:04:07.128Z,660
2022-12-01T10:05:22.593Z,668
2022-12-01T10:06:37.790Z,652
2022-12-01T10:07:53.747Z,620
2022-12-01T10:09:10.170Z,604
2022-12-01T10:10:26.350Z,604
2022-12-01T10:11:42.545Z,612
2022-12-01T10:12:58.727Z,604
2022-12-01T10:14:14.917Z,596
2022-12-01T10:15:31.110Z,600
2022-12-01T10:16:47.295Z,604
2022-12-01T10:18:03.492Z,608
2022-12-01T10:19:19.443Z,680
2022-12-01T10:20:35.884Z,684
2022-12-01T10:21:51.828Z,688
2022-12-01T10:23:07.266Z,612
2022-12-01T10:24:23.465Z,560
2022-12-01T10:25:39.642Z,532
2022-12-01T10:26:55.840Z,520
2022-12-01T10:28:11.791Z,544
2022-12-01T10:29:28.217Z,548
2022-12-01T10:30:44.397Z,552
2022-12-01T10:31:59.387Z,544
2022-12-01T10:33:14.575Z,528
2022-12-01T10:34:30.035Z,504
2022-12-01T10:35:45.234Z,468
2022-12-01T10:37:00.462Z,436
2022-12-01T10:38:15.666Z,400
2022-12-01T10:39:31.613Z,356
2022-12-01T10:40:47.793Z,324
2022-12-01T10:42:04.223Z,320
2022-12-01T10:43:20.415Z,340
2022-12-01T10:44:36.617Z,364
2022-12-01T10:45:52.557Z,388
2022-12-01T10:47:08.749Z,388
2022-12-01T10:48:25.187Z,400
2022-12-01T10:49:41.373Z,432
2022-12-01T10:50:57.561Z,484
2022-12-01T10:52:13.745Z,512
2022-12-01T10:53:29.686Z,512
2022-12-01T10:54:45.134Z,492
2022-12-01T10:56:01.330Z,480
2022-12-01T10:57:17.515Z,480
2022-12-01T10:58:33.461Z,484
2022-12-01T10:59:49.654Z,480
2022-12-01T11:01:06.080Z,460
2022-12-01T11:02:22.026Z,440
2022-12-01T11:03:37.237Z,432
2022-12-01T11:04:52.695Z,424
2022-12-01T11:06:08.901Z,408
2022-12-01T11:07:25.085Z,424
2022-12-01T11:08:41.261Z,452
2022-12-01T11:09:57.203Z,468
2022-12-01T11:11:13.653Z,464
2022-12-01T11:12:29.841Z,448
2022-12-01T11:13:46.020Z,448
2022-12-01T11:15:02.210Z,452
2022-12-01T11:16:18.396Z,456
2022-12-01T11:17:34.335Z,476
2022-12-01T11:18:50.783Z,492
2022-12-01T11:20:06.960Z,480
2022-12-01T11:21:22.165Z,492
2022-12-01T11:22:38.372Z,452
2022-12-01T11:23:54.295Z,456
2022-12-01T11:25:10.750Z,452
2022-12-01T11:26:26.942Z,452
2022-12-01T11:27:43.118Z,440
2022-12-01T11:28:59.302Z,428
2022-12-01T11:30:14.535Z,412
2022-12-01T11:31:29.738Z,404
2022-12-01T11:32:45.916Z,404
2022-12-01T11:34:02.105Z,412
2022-12-01T11:35:18.294Z,420
2022-12-01T11:36:34.225Z,424
2022-12-01T11:37:50.432Z,428
2022-12-01T11:39:06.864Z,428
2022-12-01T11:40:22.795Z,460
2022-12-01T11:41:39.245Z,540
2022-12-01T11:42:55.440Z,600
2022-12-01T11:44:11.630Z,612
2022-12-01T11:45:27.817Z,592
2022-12-01T11:46:43.992Z,568
2022-12-01T11:47:58.959Z,536
2022-12-01T11:49:15.388Z,508
2022-12-01T11:50:31.329Z,512
2022-12-01T11:51:47.772Z,524
2022-12-01T11:53:03.971Z,504
2022-12-01T11:54:20.156Z,500
2022-12-01T11:55:36.079Z,520
2022-12-01T11:56:51.556Z,544
2022-12-01T11:58:06.772Z,568
2022-12-01T11:59:21.987Z,568
2022-12-01T12:00:36.924Z,556
2022-12-01T12:01:53.102Z,544
2022-12-01T12:03:09.563Z,528
2022-12-01T12:04:25.495Z,524
2022-12-01T12:05:41.931Z,560
2022-12-01T12:06:58.137Z,584
2022-12-01T12:08:14.313Z,588
2022-12-01T12:09:30.505Z,560
2022-12-01T12:10:46.438Z,556
2022-12-01T12:12:02.631Z,576
2022-12-01T12:13:19.069Z,576
2022-12-01T12:14:35.003Z,524
2022-12-01T12:15:51.454Z,492
2022-12-01T12:17:06.683Z,488
2022-12-01T12:18:22.592Z,488
2022-12-01T12:19:39.029Z,472
2022-12-01T12:20:54.973Z,464
2022-12-01T12:22:11.420Z,480
2022-12-01T12:23:27.338Z,448
2022-12-01T12:24:43.803Z,420
2022-12-01T12:25:58.756Z,424
2022-12-01T12:27:13.944Z,420
2022-12-01T12:28:29.437Z,408
2022-12-01T12:29:44.361Z,400
2022-12-01T12:30:59.586Z,388
2022-12-01T12:32:15.058Z,388
2022-12-01T12:33:31.256Z,384
2022-12-01T12:34:47.438Z,388
2022-12-01T12:36:03.625Z,400
2022-12-01T12:37:19.550Z,420
2022-12-01T12:38:36.014Z,424
2022-12-01T12:39:51.918Z,448
2022-12-01T12:41:08.125Z,488
2022-12-01T12:42:24.572Z,508
2022-12-01T12:43:40.760Z,512
2022-12-01T12:44:56.949Z,524
2022-12-01T12:46:13.143Z,520
2022-12-01T12:47:29.326Z,480
2022-12-01T12:48:44.536Z,496
2022-12-01T12:50:00.715Z,548
2022-12-01T12:51:16.914Z,624
2022-12-01T12:52:33.112Z,672
2022-12-01T12:53:49.293Z,636
2022-12-01T12:55:05.484Z,644
2022-12-01T12:56:21.408Z,584
2022-12-01T12:57:36.896Z,572
2022-12-01T12:58:52.083Z,548
2022-12-01T13:00:08.291Z,536
2022-12-01T13:01:23.507Z,528
2022-12-01T13:02:38.697Z,500
2022-12-01T13:03:54.896Z,512
2022-12-01T13:05:11.084Z,496
2022-12-01T13:06:26.996Z,500
2022-12-01T13:07:43.452Z,492
2022-12-01T13:08:59.653Z,476
2022-12-01T13:10:15.848Z,460
2022-12-01T13:11:31.761Z,416
2022-12-01T13:12:47.947Z,380
2022-12-01T13:14:04.402Z,360
2022-12-01T13:15:20.588Z,360
2022-12-01T13:16:36.793Z,336
2022-12-01T13:17:52.689Z,360
2022-12-01T13:19:09.002Z,356
2022-12-01T13:20:25.462Z,380
2022-12-01T13:21:41.657Z,380
2022-12-01T13:22:57.850Z,380
2022-12-01T13:24:14.041Z,324
2022-12-01T13:25:30.236Z,304
2022-12-01T13:26:46.132Z,300
2022-12-01T13:28:01.631Z,316
2022-12-01T13:29:16.837Z,304
2022-12-01T13:30:32.761Z,316
2022-12-01T13:31:48.932Z,348
2022-12-01T13:33:04.426Z,332
2022-12-01T13:34:20.744Z,332
2022-12-01T13:35:36.928Z,336
2022-12-01T13:36:53.125Z,324
2022-12-01T13:38:09.304Z,304
2022-12-01T13:39:25.504Z,292
2022-12-01T13:40:41.701Z,276
2022-12-01T13:41:57.887Z,268
2022-12-01T13:43:13.778Z,256
2022-12-01T13:44:29.985Z,248
2022-12-01T13:45:46.439Z,256
2022-12-01T13:47:02.637Z,252
2022-12-01T13:48:18.836Z,244
2022-12-01T13:49:34.735Z,232
2022-12-01T13:50:49.939Z,220
2022-12-01T13:52:06.417Z,216
2022-12-01T13:53:22.608Z,204
2022-12-01T13:54:38.510Z,196
2022-12-01T13:55:54.977Z,188
2022-12-01T13:57:10.874Z,192
2022-12-01T13:58:27.352Z,184
2022-12-01T13:59:42.287Z,176
2022-12-01T14:00:57.787Z,180
2022-12-01T14:02:13.971Z,180
2022-12-01T14:03:30.154Z,180
2022-12-01T14:04:46.349Z,180
2022-12-01T14:06:02.542Z,164
2022-12-01T14:07:18.728Z,168
2022-12-01T14:08:34.632Z,176
2022-12-01T14:09:50.818Z,164
2022-12-01T14:11:07.288Z,152
2022-12-01T14:12:23.481Z,152
2022-12-01T14:13:39.668Z,148
2022-12-01T14:14:54.878Z,140
2022-12-01T14:16:11.074Z,132
2022-12-01T14:17:27.252Z,132
2022-12-01T14:18:43.452Z,128
2022-12-01T14:19:59.350Z,124
2022-12-01T14:21:15.817Z,124
2022-12-01T14:22:32.008Z,120
2022-12-01T14:23:48.198Z,120
2022-12-01T14:25:04.404Z,116
2022-12-01T14:26:19.602Z,112
2022-12-01T14:27:34.525Z,104
2022-12-01T14:28:49.749Z,108
2022-12-01T14:30:05.241Z,104
2022-12-01T14:31:21.423Z,100
2022-12-01T14:32:36.351Z,96
2022-12-01T14:33:51.552Z,92
2022-12-01T14:35:08.047Z,84
2022-12-01T14:36:24.227Z,80
2022-12-01T14:37:40.114Z,76
2022-12-01T14:38:56.607Z,72
2022-12-01T14:40:12.786Z,68
2022-12-01T14:41:28.995Z,64
2022-12-01T14:42:45.167Z,56
2022-12-01T14:44:01.359Z,52
2022-12-01T14:45:17.544Z,48
2022-12-01T14:46:33.739Z,44
2022-12-01T14:47:49.924Z,40
2022-12-01T14:49:06.116Z,36
2022-12-01T14:50:21.030Z,36
2022-12-01T14:51:37.518Z,32
2022-12-01T14:52:53.703Z,32
2022-12-01T14:54:09.890Z,24
2022-12-01T14:55:25.780Z,24
2022-12-01T14:56:42.278Z,24
2022-12-01T14:57:58.452Z,20
2022-12-01T14:59:13.680Z,20
2022-12-01T15:00:28.890Z,16
2022-12-01T15:01:45.071Z,16
2022-12-01T15:02:59.993Z,12
2022-12-01T15:04:15.500Z,8
2022-12-01T15:05:31.389Z,8
2022-12-01T15:06:47.875Z,8
2022-12-01T15:08:03.754Z,8
2022-12-01T15:09:20.260Z,8
2022-12-01T15:10:36.447Z,4
2022-12-01T15:11:52.333Z,4
2022-12-01T15:13:08.508Z,4
2022-12-01T15:14:25.007Z,4
2022-12-01T15:15:41.188Z,4
2022-12-01T15:16:57.384Z,0
2022-12-01T15:18:13.571Z,4
2022-12-01T15:19:29.453Z,4
2022-12-01T15:20:44.665Z,0
2022-12-01T15:22:01.152Z,0
2022-12-01T15:23:17.337Z,0
2022-12-01T15:24:33.223Z,0
2022-12-01T15:25:49.728Z,0
2022-12-01T15:27:05.912Z,0
2022-12-01T15:28:22.107Z,0
2022-12-01T15:29:37.311Z,0
2022-12-01T15:30:52.531Z,0
2022-12-01T15:32:08.720Z,0
2022-12-01T15:33:23.920Z,0
2022-12-01T15:34:39.139Z,0
2022-12-01T15:35:55.024Z,0
2022-12-01T15:37:11.512Z,0
2022-12-01T15:38:27.698Z,0
2022-12-01T15:39:43.900Z,0
2022-12-01T15:41:00.082Z,0
2022-12-01T15:42:16.275Z,0
2022-12-01T15:43:32.146Z,0
2022-12-01T15:44:48.654Z,0
2022-12-01T15:46:04.529Z,0
2022-12-01T15:47:21.030Z,0
2022-12-01T15:48:36.898Z,0
2022-12-01T15:49:53.090Z,0
2022-12-01T15:51:08.302Z,0
2022-12-01T15:52:24.809Z,0
2022-12-01T15:53:40.986Z,0
2022-12-01T15:54:57.172Z,0
2022-12-01T15:56:13.046Z,0
2022-12-01T15:57:29.252Z,0
2022-12-01T15:58:45.436Z,0
2022-12-01T16:00:00.657Z,0
2022-12-01T16:01:16.170Z,0
2022-12-01T16:02:32.362Z,0
2022-12-01T16:03:48.546Z,0
2022-12-01T16:05:04.727Z,0
2022-12-01T16:06:20.918Z,0
2022-12-01T16:07:37.115Z,0
2022-12-01T16:08:53.306Z,0
2022-12-01T16:10:09.167Z,0
2022-12-01T16:11:25.690Z,0
2022-12-01T16:12:41.863Z,0
2022-12-01T16:13:57.739Z,0
2022-12-01T16:15:13.923Z,0
2022-12-01T16:16:30.440Z,0
2022-12-01T16:17:45.321Z,0
2022-12-01T16:19:01.827Z,0
2022-12-01T16:20:18.013Z,0
2022-12-01T16:21:33.900Z,0
2022-12-01T16:22:50.404Z,0
2022-12-01T16:24:06.268Z,0
2022-12-01T16:25:22.770Z,0
2022-12-01T16:26:37.990Z,0
2022-12-01T16:27:52.880Z,0
2022-12-01T16:29:08.425Z,0
2022-12-01T16:30:23.621Z,0
2022-12-01T16:31:38.842Z,0
2022-12-01T16:32:54.036Z,0
2022-12-01T16:34:09.903Z,0
2022-12-01T16:35:26.415Z,0
2022-12-01T16:36:42.605Z,0
2022-12-01T16:37:58.488Z,0
2022-12-01T16:39:14.990Z,0
2022-12-01T16:40:30.868Z,0
2022-12-01T16:41:47.046Z,0
2022-12-01T16:43:03.549Z,0
2022-12-01T16:44:19.745Z,0
2022-12-01T16:45:35.925Z,0
2022-12-01T16:46:51.809Z,0
2022-12-01T16:48:08.312Z,0
2022-12-01T16:49:23.524Z,0
2022-12-01T16:50:39.716Z,0
2022-12-01T16:51:55.570Z,0
2022-12-01T16:53:12.087Z,0
2022-12-01T16:54:27.945Z,0
2022-12-01T16:55:44.460Z,0
2022-12-01T16:57:00.650Z,0
2022-12-01T16:58:15.863Z,0
2022-12-01T16:59:30.757Z,0
2022-12-01T17:00:47.268Z,0
2022-12-01T17:02:03.450Z,0
2022-12-01T17:03:19.637Z,0
2022-12-01T17:04:35.839Z,0
2022-12-01T17:05:52.024Z,0
2022-12-01T17:07:07.894Z,0
2022-12-01T17:08:24.401Z,0
2022-12-01T17:09:40.583Z,0
2022-12-01T17:10:56.782Z,0
2022-12-01T17:12:12.966Z,0
2022-12-01T17:13:29.183Z,0
2022-12-01T17:14:45.349Z,0
2022-12-01T17:16:00.555Z,0
2022-12-01T17:17:16.740Z,0
2022-12-01T17:18:32.591Z,0
2022-12-01T17:19:49.117Z,0
2022-12-01T17:21:05.300Z,0
2022-12-01T17:22:21.163Z,0
2022-12-01T17:23:37.674Z,0
2022-12-01T17:24:52.890Z,0
2022-12-01T17:26:08.098Z,0
2022-12-01T17:27:24.290Z,0
2022-12-01T17:28:40.468Z,0
2022-12-01T17:29:56.667Z,0
2022-12-01T17:31:12.851Z,0
2022-12-01T17:32:29.025Z,0
2022-12-01T17:33:45.220Z,0
2022-12-01T17:35:01.417Z,0
2022-12-01T17:36:17.264Z,0
2022-12-01T17:37:33.458Z,0
2022-12-01T17:38:49.963Z,0
2022-12-01T17:40:06.159Z,0
2022-12-01T17:41:22.000Z,0
2022-12-01T17:42:37.211Z,0
2022-12-01T17:43:53.410Z,0
2022-12-01T17:45:09.596Z,0
2022-12-01T17:46:26.103Z,0
2022-12-01T17:47:41.955Z,0
2022-12-01T17:48:58.479Z,0
2022-12-01T17:50:14.679Z,0
2022-12-01T17:51:29.880Z,0
2022-12-01T17:52:44.756Z,0
2022-12-01T17:54:00.296Z,0
2022-12-01T17:55:15.506Z,0
2022-12-01T17:56:30.728Z,0
2022-12-01T17:57:45.922Z,0
2022-12-01T17:59:02.109Z,0
2022-12-01T18:00:17.965Z,0
2022-12-01T18:01:34.497Z,0
2022-12-01T18:02:50.681Z,0
2022-12-01T18:04:06.863Z,0
2022-12-01T18:05:23.049Z,0
2022-12-01T18:06:39.242Z,0
2022-12-01T18:07:55.094Z,0
2022-12-01T18:09:11.281Z,0
2022-12-01T18:10:27.803Z,0
2022-12-01T18:11:43.651Z,0